Time;durP1;ratioP1;P1;durP2;ratioP2;P2;SDS_P1;SDS_P2;PMS_P1;PMS_P2;Temp;Humidity;BMP_temperature;BMP_pressure;BME280_temperature;BME280_humidity;BME280_pressure;Samples;Min_cycle;Max_cycle;Signal;HPM_P1;HPM_P2
2021/03/12 00:00:47;;;;;;;35.57;26.63;;;;;;;3.64;83.27;98805.34;123474;1105;104303;-82
2021/03/12 00:03:18;;;;;;;42.55;29.52;;;;;;;3.61;83.75;98806.27;123758;1105;104223;-82
2021/03/12 00:05:49;;;;;;;37.07;30.20;;;;;;;3.60;83.07;98811.55;123606;1105;104274;-82
2021/03/12 00:08:15;;;;;;;37.10;26.87;;;;;;;3.60;83.86;98804.54;123507;1105;104313;-85
2021/03/12 00:10:57;;;;;;;37.73;29.05;;;;;;;3.64;83.92;98794.81;123435;1106;105011;-82
2021/03/12 00:13:38;;;;;;;40.90;29.63;;;;;;;3.66;83.66;98792.98;123503;1105;104291;-84
2021/03/12 00:16:06;;;;;;;41.88;29.72;;;;;;;3.64;83.52;98787.77;123494;1106;104307;-82
2021/03/12 00:18:41;;;;;;;38.30;29.50;;;;;;;3.66;83.77;98782.45;123490;1105;104424;-82
2021/03/12 00:21:16;;;;;;;44.20;32.85;;;;;;;3.63;83.04;98778.12;123433;1106;105040;-83
2021/03/12 00:23:44;;;;;;;42.80;31.50;;;;;;;3.62;83.75;98786.07;123541;1105;104427;-82
2021/03/12 00:26:11;;;;;;;37.80;30.30;;;;;;;3.57;83.01;98773.00;123275;1105;104392;-84
2021/03/12 00:28:38;;;;;;;40.33;29.50;;;;;;;3.59;83.78;98765.09;123258;1105;104718;-80
2021/03/12 00:31:05;;;;;;;40.80;30.88;;;;;;;3.58;83.58;98766.84;123318;1105;104419;-87
2021/03/12 00:33:33;;;;;;;40.75;29.72;;;;;;;3.64;83.60;98769.34;123626;1105;104258;-83
2021/03/12 00:35:59;;;;;;;38.47;31.30;;;;;;;3.64;83.25;98771.97;123775;1105;104140;-83
2021/03/12 00:38:26;;;;;;;41.63;28.80;;;;;;;3.63;83.41;98767.59;123782;1106;104287;-82
2021/03/12 00:41:04;;;;;;;40.70;30.72;;;;;;;3.66;82.87;98771.92;123790;1105;104329;-83
2021/03/12 00:43:30;;;;;;;36.28;29.35;;;;;;;3.70;83.30;98762.20;123771;1105;104405;-83
2021/03/12 00:45:59;;;;;;;38.53;28.70;;;;;;;3.72;83.35;98763.00;123560;1105;104217;-80
2021/03/12 00:48:26;;;;;;;50.10;29.95;;;;;;;3.73;83.43;98760.33;123488;1105;104264;-82
2021/03/12 00:50:53;;;;;;;41.10;29.87;;;;;;;3.74;83.54;98762.06;123448;1105;104248;-83
2021/03/12 00:53:20;;;;;;;46.67;30.17;;;;;;;3.77;82.79;98766.39;123666;1105;105008;-83
2021/03/12 00:55:48;;;;;;;40.58;29.95;;;;;;;3.80;82.56;98771.60;123709;1105;104210;-83
2021/03/12 00:58:16;;;;;;;48.20;31.27;;;;;;;3.84;82.78;98775.88;123580;1105;104204;-82
2021/03/12 01:00:42;;;;;;;44.30;29.85;;;;;;;3.89;83.60;98778.38;123685;1105;104181;-84
2021/03/12 01:03:11;;;;;;;41.08;29.80;;;;;;;3.91;82.81;98774.81;123884;1105;104283;-83
2021/03/12 01:05:41;;;;;;;47.13;29.35;;;;;;;3.87;82.38;98778.43;123758;1106;104255;-84
2021/03/12 01:08:09;;;;;;;34.23;28.00;;;;;;;3.80;82.59;98768.97;123675;1104;104313;-83
2021/03/12 01:10:36;;;;;;;39.67;29.52;;;;;;;3.76;82.66;98764.66;123415;1106;104309;-82
2021/03/12 01:13:03;;;;;;;40.58;28.25;;;;;;;3.78;82.67;98763.72;123254;1105;104245;-83
2021/03/12 01:15:30;;;;;;;39.18;29.42;;;;;;;3.79;83.23;98751.44;123031;1105;104460;-87
2021/03/12 01:17:57;;;;;;;39.23;27.30;;;;;;;3.83;82.95;98750.45;123043;1105;104339;-81
2021/03/12 01:20:27;;;;;;;29.77;23.27;;;;;;;3.80;83.22;98740.86;123069;1105;104341;-83
2021/03/12 01:22:55;;;;;;;32.73;24.15;;;;;;;3.83;83.34;98742.55;123464;1105;104509;-82
2021/03/12 01:25:24;;;;;;;33.10;26.13;;;;;;;3.87;83.60;98746.83;123181;1105;104226;-87
2021/03/12 01:27:51;;;;;;;31.65;21.48;;;;;;;3.88;82.93;98745.93;122925;1105;104274;-81
2021/03/12 01:30:32;;;;;;;38.20;29.10;;;;;;;3.87;83.11;98744.20;123038;1105;104348;-82
2021/03/12 01:32:59;;;;;;;32.58;27.42;;;;;;;3.85;83.08;98745.98;122863;1105;104376;-83
2021/03/12 01:35:25;;;;;;;34.40;25.32;;;;;;;3.88;83.57;98760.84;123072;1105;104249;-83
2021/03/12 01:37:52;;;;;;;32.35;26.75;;;;;;;3.97;83.34;98750.08;123136;1105;104341;-91
2021/03/12 01:40:20;;;;;;;28.80;23.92;;;;;;;4.07;83.82;98750.72;123273;1105;104277;-82
2021/03/12 01:42:50;;;;;;;25.35;21.07;;;;;;;4.12;83.50;98754.95;123786;1105;104245;-82
2021/03/12 01:45:24;;;;;;;28.70;22.70;;;;;;;4.17;83.44;98755.70;123855;1105;104252;-82
2021/03/12 01:47:52;;;;;;;28.45;19.70;;;;;;;4.23;82.95;98757.30;123723;1105;104370;-83
2021/03/12 01:50:20;;;;;;;20.45;15.95;;;;;;;4.26;83.32;98759.84;123538;1105;104248;-82
2021/03/12 01:52:47;;;;;;;19.73;16.80;;;;;;;4.27;83.47;98751.03;123955;1105;104310;-82
2021/03/12 01:55:28;;;;;;;34.23;22.83;;;;;;;4.29;83.42;98745.72;123393;1105;104492;-84
2021/03/12 01:58:14;;;;;;;28.53;21.00;;;;;;;4.34;83.38;98738.55;123423;1105;104743;-81
2021/03/12 02:00:41;;;;;;;20.60;16.63;;;;;;;4.35;83.09;98745.56;123657;1105;104251;-83
2021/03/12 02:03:09;;;;;;;24.70;20.10;;;;;;;4.38;82.60;98758.64;123536;1105;104344;-81
2021/03/12 02:05:37;;;;;;;27.43;23.33;;;;;;;4.37;82.39;98746.36;123479;1105;104296;-82
2021/03/12 02:08:14;;;;;;;27.60;21.73;;;;;;;4.37;82.02;98745.52;123582;1105;104644;-83
2021/03/12 02:10:41;;;;;;;22.70;17.43;;;;;;;4.39;82.50;98741.92;123666;1105;104351;-81
2021/03/12 02:13:12;;;;;;;27.83;23.40;;;;;;;4.41;82.27;98729.59;123424;1105;104489;-82
2021/03/12 02:15:45;;;;;;;28.10;22.67;;;;;;;4.44;82.02;98733.88;123699;1105;104389;-84
2021/03/12 02:18:42;;;;;;;27.80;22.75;;;;;;;4.42;82.41;98723.38;123566;1105;104248;-82
2021/03/12 02:21:34;;;;;;;28.43;21.20;;;;;;;4.43;81.69;98732.17;123646;1105;104367;-83
2021/03/12 02:24:21;;;;;;;33.47;24.77;;;;;;;4.48;81.92;98751.36;123639;1105;104854;-84
2021/03/12 02:27:06;;;;;;;36.83;24.15;;;;;;;4.48;82.11;98746.94;123599;1105;104497;-83
2021/03/12 02:29:34;;;;;;;33.07;23.70;;;;;;;4.49;82.11;98748.68;123515;1105;104339;-83
2021/03/12 02:32:03;;;;;;;29.92;21.20;;;;;;;4.52;82.25;98753.00;123617;1105;104360;-83
2021/03/12 02:34:38;;;;;;;27.13;20.23;;;;;;;4.57;81.87;98753.73;123652;1105;104178;-84
2021/03/12 02:37:07;;;;;;;24.10;17.37;;;;;;;4.57;81.46;98756.38;123511;1105;104249;-83
2021/03/12 02:39:36;;;;;;;29.45;20.20;;;;;;;4.56;81.78;98749.37;123601;1105;104557;-85
2021/03/12 02:42:03;;;;;;;28.07;18.30;;;;;;;4.57;81.69;98756.38;123658;1105;104318;-82
2021/03/12 02:44:32;;;;;;;27.87;22.70;;;;;;;4.60;81.84;98747.48;123663;1105;104239;-83
2021/03/12 02:47:02;;;;;;;27.22;20.52;;;;;;;4.61;81.30;98749.22;123789;1105;104845;-82
2021/03/12 02:49:31;;;;;;;24.50;20.55;;;;;;;4.62;81.85;98743.90;123702;1105;104328;-91
2021/03/12 02:51:58;;;;;;;25.55;19.52;;;;;;;4.64;81.68;98741.25;123689;1105;104242;-83
2021/03/12 02:54:43;;;;;;;29.00;19.48;;;;;;;4.66;81.12;98740.27;123512;1105;104341;-83
2021/03/12 02:57:24;;;;;;;24.30;18.23;;;;;;;4.70;81.48;98735.77;123097;1105;104469;-83
2021/03/12 02:59:52;;;;;;;25.75;18.20;;;;;;;4.71;80.63;98748.05;123080;1105;104232;-83
2021/03/12 03:02:22;;;;;;;26.93;23.22;;;;;;;4.70;80.86;98735.77;123257;1105;104261;-84
2021/03/12 03:04:49;;;;;;;19.67;13.60;;;;;;;4.68;80.52;98730.55;123037;1105;104351;-84
2021/03/12 03:07:18;;;;;;;28.17;19.97;;;;;;;4.70;81.14;98735.77;123251;1105;104307;-82
2021/03/12 03:09:46;;;;;;;25.15;18.10;;;;;;;4.69;80.78;98750.73;123075;1105;104255;-86
2021/03/12 03:12:16;;;;;;;26.00;19.65;;;;;;;4.66;80.38;98740.27;123073;1105;104307;-88
2021/03/12 03:14:46;;;;;;;20.03;16.27;;;;;;;4.66;80.35;98748.17;123266;1105;104259;-83
2021/03/12 03:17:14;;;;;;;26.35;17.98;;;;;;;4.67;80.90;98754.33;123387;1105;104261;-84
2021/03/12 03:19:46;;;;;;;22.20;18.90;;;;;;;4.65;80.62;98757.02;123412;1105;104345;-83
2021/03/12 03:22:13;;;;;;;22.47;19.07;;;;;;;4.65;81.03;98769.31;123118;1105;104348;-82
2021/03/12 03:24:39;;;;;;;26.10;20.37;;;;;;;4.63;80.66;98766.73;123203;1105;104450;-83
2021/03/12 03:27:12;;;;;;;23.27;18.07;;;;;;;4.65;80.66;98775.47;123302;1105;104309;-83
2021/03/12 03:29:39;;;;;;;23.10;18.63;;;;;;;4.72;80.22;98770.00;124133;1105;104319;-84
2021/03/12 03:32:06;;;;;;;22.25;19.15;;;;;;;4.71;80.43;98760.39;123988;1105;104168;-84
2021/03/12 03:34:33;;;;;;;21.50;18.42;;;;;;;4.66;80.25;98765.78;123808;1105;104245;-84
2021/03/12 03:37:00;;;;;;;22.00;16.77;;;;;;;4.65;80.46;98774.59;123750;1105;104377;-82
2021/03/12 03:39:27;;;;;;;19.70;16.87;;;;;;;4.62;80.42;98772.05;123825;1106;104258;-83
2021/03/12 03:41:55;;;;;;;20.90;17.50;;;;;;;4.64;80.84;98778.16;123907;1105;104426;-83
2021/03/12 03:44:26;;;;;;;26.03;19.87;;;;;;;4.65;80.83;98764.04;123908;1105;104306;-85
2021/03/12 03:47:47;;;;;;;20.60;17.90;;;;;;;4.66;80.46;98771.05;123839;1105;104261;-84
2021/03/12 03:50:29;;;;;;;27.70;20.57;;;;;;;4.68;80.47;98761.34;123359;1109;105098;-83
2021/03/12 03:52:56;;;;;;;22.15;19.80;;;;;;;4.69;80.48;98755.12;123421;1109;104414;-82
2021/03/12 03:55:24;;;;;;;22.35;18.77;;;;;;;4.71;80.19;98753.33;123416;1109;104850;-83
2021/03/12 03:58:11;;;;;;;20.07;17.50;;;;;;;4.68;80.32;98754.28;123484;1109;105284;-84
2021/03/12 04:00:38;;;;;;;19.80;17.60;;;;;;;4.69;80.01;98757.77;123441;1109;104376;-85
2021/03/12 04:03:05;;;;;;;26.73;20.70;;;;;;;4.68;80.05;98764.83;123347;1109;104884;-83
2021/03/12 04:05:46;;;;;;;24.93;19.03;;;;;;;4.65;80.17;98769.31;123185;1109;104360;-85
2021/03/12 04:08:29;;;;;;;25.40;20.03;;;;;;;4.63;80.76;98771.15;123186;1112;104709;-84
2021/03/12 04:10:57;;;;;;;22.67;17.92;;;;;;;4.68;80.11;98772.73;123152;1109;104287;-83
2021/03/12 04:13:28;;;;;;;23.80;18.33;;;;;;;4.70;80.18;98788.52;123296;1109;104418;-84
2021/03/12 04:15:55;;;;;;;22.85;19.05;;;;;;;4.68;80.40;98791.20;123488;1108;104291;-83
2021/03/12 04:18:22;;;;;;;21.73;18.17;;;;;;;4.68;80.22;98800.89;123364;1109;104698;-83
2021/03/12 04:20:49;;;;;;;24.53;19.97;;;;;;;4.67;80.30;98802.64;123404;1109;104351;-84
2021/03/12 04:23:16;;;;;;;20.27;17.80;;;;;;;4.71;80.31;98799.95;123472;1109;104264;-84
2021/03/12 04:25:43;;;;;;;25.13;18.77;;;;;;;4.73;80.41;98808.66;123376;1109;105168;-83
2021/03/12 04:28:11;;;;;;;22.75;19.40;;;;;;;4.73;80.54;98812.18;123506;1106;104802;-84
2021/03/12 04:30:38;;;;;;;26.37;18.23;;;;;;;4.71;80.46;98815.77;123682;1105;104301;-83
2021/03/12 04:33:19;;;;;;;22.65;17.00;;;;;;;4.71;80.52;98813.13;123678;1105;104150;-83
2021/03/12 04:35:46;;;;;;;20.75;17.52;;;;;;;4.72;80.20;98817.47;123512;1105;104476;-84
2021/03/12 04:38:14;;;;;;;24.00;18.65;;;;;;;4.71;80.19;98819.26;123577;1105;104268;-84
2021/03/12 04:40:41;;;;;;;26.33;19.13;;;;;;;4.71;80.14;98810.49;123679;1105;104459;-83
2021/03/12 04:43:09;;;;;;;28.13;20.87;;;;;;;4.69;80.94;98816.66;123774;1106;104274;-83
2021/03/12 04:45:50;;;;;;;25.50;18.00;;;;;;;4.71;80.46;98821.89;123617;1105;104206;-87
2021/03/12 04:48:18;;;;;;;20.92;16.37;;;;;;;4.74;80.03;98815.67;123639;1105;104578;-83
2021/03/12 04:50:45;;;;;;;25.57;19.67;;;;;;;4.75;80.65;98820.05;123568;1106;104367;-84
2021/03/12 04:53:12;;;;;;;22.45;18.30;;;;;;;4.74;80.55;98810.39;123555;1105;104357;-85
2021/03/12 04:55:38;;;;;;;20.80;18.03;;;;;;;4.78;80.75;98812.89;123645;1105;104258;-83
2021/03/12 04:58:06;;;;;;;25.25;16.73;;;;;;;4.84;80.05;98815.36;123675;1105;104249;-83
2021/03/12 05:00:43;;;;;;;20.87;15.87;;;;;;;4.85;80.43;98814.45;123694;1105;104337;-83
2021/03/12 05:03:10;;;;;;;19.57;16.97;;;;;;;4.88;80.19;98802.95;123527;1105;104339;-83
2021/03/12 05:05:37;;;;;;;25.05;18.50;;;;;;;4.90;80.15;98810.83;123614;1105;105053;-83
2021/03/12 05:08:08;;;;;;;23.95;17.40;;;;;;;4.93;80.27;98821.28;123661;1105;105098;-80
2021/03/12 05:10:35;;;;;;;24.83;17.73;;;;;;;4.99;80.45;98814.05;123357;1105;105009;-82
2021/03/12 05:13:03;;;;;;;22.45;18.75;;;;;;;5.06;80.31;98821.80;123593;1105;104210;-83
2021/03/12 05:15:30;;;;;;;22.67;18.80;;;;;;;5.03;80.14;98820.11;123818;1105;104370;-85
2021/03/12 05:17:56;;;;;;;24.13;17.57;;;;;;;5.06;80.13;98825.28;123613;1105;104518;-82
2021/03/12 05:20:37;;;;;;;23.83;18.17;;;;;;;5.11;79.80;98835.72;123304;1109;105057;-81
2021/03/12 05:23:21;;;;;;;22.55;19.10;;;;;;;5.07;79.93;98823.53;122898;1111;104312;-83
2021/03/12 05:26:02;;;;;;;30.20;19.10;;;;;;;5.05;80.01;98825.34;123123;1112;104421;-83
2021/03/12 05:28:30;;;;;;;27.32;20.08;;;;;;;5.05;79.70;98828.83;123076;1112;104313;-86
2021/03/12 05:30:57;;;;;;;27.73;22.20;;;;;;;5.08;79.40;98836.67;123019;1112;104695;-82
2021/03/12 05:33:23;;;;;;;29.67;23.47;;;;;;;5.11;79.76;98833.94;123102;1112;104900;-83
2021/03/12 05:35:50;;;;;;;30.57;25.68;;;;;;;5.11;79.61;98835.72;123291;1112;104706;-81
2021/03/12 05:38:16;;;;;;;35.10;24.97;;;;;;;5.11;79.09;98839.22;123134;1112;104431;-82
2021/03/12 05:40:43;;;;;;;25.10;21.90;;;;;;;5.13;79.22;98842.69;123111;1112;104409;-83
2021/03/12 05:43:10;;;;;;;27.87;21.37;;;;;;;5.19;79.08;98852.19;123050;1112;104297;-83
2021/03/12 05:45:51;;;;;;;25.50;18.95;;;;;;;5.21;79.42;98852.99;123068;1112;104335;-84
2021/03/12 05:48:48;;;;;;;22.75;17.95;;;;;;;5.21;78.52;98862.70;123341;1112;105236;-84
2021/03/12 05:51:29;;;;;;;21.45;16.75;;;;;;;5.26;79.46;98880.12;123161;1112;104252;-83
2021/03/12 05:54:11;;;;;;;20.70;16.42;;;;;;;5.31;78.97;98883.49;122997;1112;104414;-84
2021/03/12 05:56:53;;;;;;;18.55;16.07;;;;;;;5.30;79.18;98875.63;122743;1114;105235;-84
2021/03/12 05:59:20;;;;;;;21.80;17.42;;;;;;;5.28;79.31;98882.74;123059;1109;104411;-83
2021/03/12 06:01:46;;;;;;;26.35;18.60;;;;;;;5.27;79.58;98884.50;123180;1109;104708;-82
2021/03/12 06:04:13;;;;;;;25.90;20.33;;;;;;;5.27;79.89;98876.58;123421;1109;104432;-83
2021/03/12 06:06:40;;;;;;;22.00;18.10;;;;;;;5.26;79.89;98868.70;123412;1109;104274;-83
2021/03/12 06:09:06;;;;;;;22.43;17.43;;;;;;;5.25;80.17;98866.97;123450;1109;104434;-83
2021/03/12 06:11:33;;;;;;;19.60;14.45;;;;;;;5.25;80.18;98866.97;123442;1109;104341;-84
2021/03/12 06:13:59;;;;;;;16.02;13.20;;;;;;;5.30;80.62;98879.12;123391;1108;104523;-83
2021/03/12 06:16:30;;;;;;;16.83;14.20;;;;;;;5.33;80.58;98871.13;123424;1109;104955;-82
2021/03/12 06:19:10;;;;;;;17.75;12.05;;;;;;;5.35;80.30;98873.72;123349;1109;104427;-82
2021/03/12 06:21:38;;;;;;;13.65;12.28;;;;;;;5.32;80.80;98887.87;123366;1109;104823;-84
2021/03/12 06:24:23;;;;;;;13.83;10.93;;;;;;;5.34;80.51;98895.73;123451;1109;104322;-82
2021/03/12 06:26:50;;;;;;;13.18;9.95;;;;;;;5.34;80.66;98882.54;123234;1109;104243;-83
2021/03/12 06:29:17;;;;;;;12.43;10.93;;;;;;;5.38;80.32;98904.45;123345;1105;104454;-82
2021/03/12 06:31:58;;;;;;;16.48;10.40;;;;;;;5.34;80.84;98907.19;123710;1105;104294;-86
2021/03/12 06:34:39;;;;;;;15.70;11.83;;;;;;;5.36;80.96;98921.19;123718;1105;104213;-82
2021/03/12 06:37:27;;;;;;;14.68;11.20;;;;;;;5.40;81.05;98932.53;123601;1106;104928;-82
2021/03/12 06:39:54;;;;;;;13.20;11.10;;;;;;;5.45;80.81;98921.82;123851;1105;104261;-83
2021/03/12 06:42:20;;;;;;;17.57;11.50;;;;;;;5.46;81.24;98920.92;123770;1105;104249;-84
2021/03/12 06:44:47;;;;;;;14.47;11.40;;;;;;;5.51;81.09;98922.50;123786;1105;104267;-83
2021/03/12 06:47:23;;;;;;;19.57;12.23;;;;;;;5.53;80.93;98931.27;123745;1105;104990;-84
2021/03/12 06:49:58;;;;;;;12.53;11.20;;;;;;;5.59;80.95;98927.56;123731;1106;104290;-84
2021/03/12 06:52:35;;;;;;;22.13;12.63;;;;;;;5.58;80.96;98925.83;123534;1105;104350;-84
2021/03/12 06:55:03;;;;;;;23.10;13.03;;;;;;;5.55;81.35;98933.00;123703;1106;104746;-84
2021/03/12 06:58:04;;;;;;;17.20;13.37;;;;;;;5.55;81.14;98933.00;123770;1105;104194;-85
2021/03/12 07:00:32;;;;;;;16.83;11.40;;;;;;;5.58;81.03;98933.75;123940;1106;104335;-84
2021/03/12 07:02:59;;;;;;;10.82;9.80;;;;;;;5.59;81.12;98939.92;123897;1105;104493;-86
2021/03/12 07:05:26;;;;;;;13.28;11.88;;;;;;;5.60;81.02;98944.27;123850;1105;104444;-86
2021/03/12 07:07:54;;;;;;;14.97;11.07;;;;;;;5.63;81.48;98946.84;123740;1105;104283;-83
2021/03/12 07:10:48;;;;;;;;;;;;;;;;;;;;;
2021/03/12 07:13:29;;;;;;;16.25;12.95;;;;;;;5.74;81.54;98942.08;123819;1105;104217;-89
2021/03/12 07:15:57;;;;;;;19.50;13.60;;;;;;;5.75;81.20;98938.53;123421;1105;104753;-90
2021/03/12 07:18:29;;;;;;;16.25;12.93;;;;;;;5.84;81.23;98956.75;123721;1105;104255;-82
2021/03/12 07:20:58;;;;;;;14.43;11.03;;;;;;;5.84;81.49;98962.03;123679;1105;104270;-83
2021/03/12 07:23:27;;;;;;;12.20;10.73;;;;;;;5.84;81.27;98966.47;123502;1105;104255;-83
2021/03/12 07:25:55;;;;;;;18.03;11.57;;;;;;;5.79;81.59;98961.30;123759;1105;104301;-82
2021/03/12 07:28:23;;;;;;;15.40;12.80;;;;;;;5.81;81.44;98969.18;123388;1105;104291;-83
2021/03/12 07:30:54;;;;;;;14.97;10.73;;;;;;;5.85;81.59;98969.06;123814;1105;104401;-82
2021/03/12 07:33:25;;;;;;;14.97;12.73;;;;;;;5.91;81.61;98969.79;123416;1105;104771;-84
2021/03/12 07:35:54;;;;;;;14.15;12.20;;;;;;;5.98;81.48;98973.99;123712;1105;104267;-85
2021/03/12 07:38:23;;;;;;;12.53;10.87;;;;;;;6.05;81.52;98980.84;123521;1105;104705;-84
2021/03/12 07:41:06;;;;;;;13.05;11.40;;;;;;;6.10;81.27;98984.17;123429;1105;104303;-82
2021/03/12 07:43:34;;;;;;;15.68;11.00;;;;;;;6.14;80.72;98987.59;123572;1104;104348;-84
2021/03/12 07:46:03;;;;;;;17.30;11.70;;;;;;;6.12;81.18;98982.37;123569;1105;104322;-83
2021/03/12 07:48:35;;;;;;;16.73;12.17;;;;;;;6.09;81.22;98984.23;123805;1105;104288;-93
2021/03/12 07:51:10;;;;;;;14.25;11.90;;;;;;;6.12;81.08;98992.09;123662;1105;104347;-82
2021/03/12 07:53:48;;;;;;;16.57;11.85;;;;;;;6.17;81.37;98995.42;123737;1105;104316;-85
2021/03/12 07:56:17;;;;;;;22.70;15.95;;;;;;;6.21;81.58;98997.06;124476;1105;104147;-91
2021/03/12 07:59:00;;;;;;;20.73;16.33;;;;;;;6.24;80.91;98994.34;123766;1105;104140;-84
2021/03/12 08:01:53;;;;;;;17.73;14.07;;;;;;;6.27;80.88;98991.59;123552;1105;104476;-84
2021/03/12 08:04:34;;;;;;;19.63;14.70;;;;;;;6.31;80.88;99000.30;123418;1105;104769;-83
2021/03/12 08:07:21;;;;;;;18.20;16.07;;;;;;;6.33;80.92;98994.05;123524;1106;104246;-84
2021/03/12 08:09:54;;;;;;;17.53;14.93;;;;;;;6.39;80.65;98998.27;123909;1105;104313;-84
2021/03/12 08:12:36;;;;;;;20.35;14.73;;;;;;;6.53;80.95;99005.75;123786;1105;104335;-83
2021/03/12 08:15:32;;;;;;;17.00;13.90;;;;;;;6.67;80.36;99000.88;123782;1105;104763;-85
2021/03/12 08:18:00;;;;;;;14.63;11.27;;;;;;;6.90;80.37;99009.83;123732;1105;104243;-83
2021/03/12 08:20:29;;;;;;;16.27;11.93;;;;;;;7.05;79.50;99020.82;123743;1105;104203;-85
2021/03/12 08:22:57;;;;;;;12.60;10.48;;;;;;;7.04;78.55;99022.61;123653;1106;104220;-83
2021/03/12 08:25:32;;;;;;;12.63;9.90;;;;;;;7.04;78.93;99025.27;123634;1105;104251;-83
2021/03/12 08:28:00;;;;;;;20.10;9.60;;;;;;;7.05;78.38;99024.35;123748;1105;104220;-83
2021/03/12 08:30:26;;;;;;;12.97;11.20;;;;;;;7.01;78.52;99026.23;123424;1105;104312;-83
2021/03/12 08:32:54;;;;;;;18.33;11.10;;;;;;;7.00;78.07;99028.93;123682;1105;104233;-85
2021/03/12 08:35:34;;;;;;;12.60;10.03;;;;;;;7.07;77.54;99030.44;123629;1106;104570;-84
2021/03/12 08:38:28;;;;;;;11.20;9.80;;;;;;;7.23;78.04;99037.88;123694;1105;104251;-82
2021/03/12 08:41:24;;;;;;;15.03;12.28;;;;;;;7.31;78.42;99044.61;123739;1105;104341;-82
2021/03/12 08:43:53;;;;;;;12.57;10.37;;;;;;;7.36;77.22;99037.38;123375;1105;104296;-86
2021/03/12 08:46:23;;;;;;;11.00;8.28;;;;;;;7.42;77.31;99043.38;123284;1105;104334;-82
2021/03/12 08:48:54;;;;;;;11.25;7.80;;;;;;;7.44;77.01;99041.55;123526;1105;104367;-84
2021/03/12 08:51:22;;;;;;;11.63;9.43;;;;;;;7.48;76.93;99049.33;123617;1105;104485;-85
2021/03/12 08:53:53;;;;;;;11.33;9.60;;;;;;;7.58;76.96;99049.84;123538;1105;104249;-84
2021/03/12 08:56:29;;;;;;;11.97;10.10;;;;;;;7.68;75.65;99047.75;123445;1105;104367;-83
2021/03/12 08:59:10;;;;;;;12.23;9.18;;;;;;;7.86;75.86;99049.73;123637;1108;104287;-85
2021/03/12 09:01:41;;;;;;;11.73;8.30;;;;;;;8.03;75.40;99054.38;123438;1108;104444;-82
2021/03/12 09:04:08;;;;;;;9.55;8.40;;;;;;;8.20;75.62;99060.84;123400;1106;104309;-83
2021/03/12 09:06:36;;;;;;;9.63;8.50;;;;;;;8.25;75.12;99055.36;123712;1105;104332;-84
2021/03/12 09:09:08;;;;;;;9.20;7.23;;;;;;;8.26;73.49;99067.70;123437;1106;104325;-81
2021/03/12 09:11:35;;;;;;;7.93;7.13;;;;;;;8.18;73.50;99067.98;123685;1105;104352;-80
2021/03/12 09:14:03;;;;;;;8.58;7.40;;;;;;;8.10;74.95;99081.53;123199;1105;104317;-82
2021/03/12 09:16:30;;;;;;;10.00;7.33;;;;;;;8.02;74.32;99075.66;123193;1105;104293;-88
2021/03/12 09:19:01;;;;;;;10.93;7.22;;;;;;;8.01;74.47;99085.41;123244;1106;104329;-81
2021/03/12 09:21:29;;;;;;;8.10;6.63;;;;;;;8.01;74.28;99081.88;123534;1105;104744;-81
2021/03/12 09:24:00;;;;;;;8.00;6.50;;;;;;;7.95;73.61;99090.07;123399;1105;104184;-79
2021/03/12 09:26:32;;;;;;;9.13;7.58;;;;;;;7.87;73.33;99093.84;123392;1105;104248;-84
2021/03/12 09:29:00;;;;;;;8.50;7.50;;;;;;;7.87;73.96;99101.80;123338;1106;104325;-82
2021/03/12 09:31:33;;;;;;;14.60;8.23;;;;;;;7.95;73.89;99098.02;123338;1105;104252;-86
2021/03/12 09:34:04;;;;;;;12.28;8.35;;;;;;;8.00;73.27;99098.72;123593;1105;104459;-86
2021/03/12 09:36:36;;;;;;;12.07;9.20;;;;;;;7.98;74.22;99103.20;123634;1105;104219;-83
2021/03/12 09:39:12;;;;;;;11.68;8.93;;;;;;;8.02;73.98;99100.40;123695;1105;104258;-90
2021/03/12 09:41:42;;;;;;;8.85;7.58;;;;;;;8.25;72.13;99098.67;123695;1105;104293;-84
2021/03/12 09:44:13;;;;;;;12.07;8.33;;;;;;;8.31;73.82;99106.38;123691;1105;104229;-85
2021/03/12 09:46:45;;;;;;;8.13;7.33;;;;;;;8.36;71.83;99107.07;123763;1105;104332;-87
2021/03/12 09:49:46;;;;;;;11.88;10.53;;;;;;;8.30;72.53;99103.79;123664;1106;104367;-82
2021/03/12 09:52:17;;;;;;;13.70;10.95;;;;;;;8.23;73.30;99112.91;123375;1105;104308;-84
2021/03/12 09:54:45;;;;;;;14.50;11.03;;;;;;;8.25;73.47;99114.59;123725;1105;104137;-83
2021/03/12 09:57:17;;;;;;;11.73;9.07;;;;;;;8.29;72.48;99107.36;123764;1105;104367;-84
2021/03/12 09:59:50;;;;;;;16.45;13.43;;;;;;;8.33;72.66;99111.63;123535;1105;104201;-85
2021/03/12 10:02:19;;;;;;;13.05;10.35;;;;;;;8.26;73.60;99116.30;123589;1105;104291;-82
2021/03/12 10:05:03;;;;;;;49.07;32.40;;;;;;;8.22;74.24;99113.83;123629;1105;104240;-84
2021/03/12 10:07:47;;;;;;;16.67;12.90;;;;;;;8.19;74.36;99117.45;123463;1105;104570;-81
2021/03/12 10:10:17;;;;;;;37.27;22.07;;;;;;;8.06;74.17;99126.79;123408;1106;104232;-84
2021/03/12 10:12:44;;;;;;;23.50;17.47;;;;;;;7.97;75.28;99138.58;123958;1105;104609;-85
2021/03/12 10:15:34;;;;;;;12.13;7.53;;;;;;;7.83;75.17;99158.50;123677;1105;104158;-84
2021/03/12 10:18:17;;;;;;;6.37;5.87;;;;;;;7.63;75.44;99168.94;123744;1105;104292;-82
2021/03/12 10:20:44;;;;;;;7.67;6.87;;;;;;;7.41;76.26;99172.31;123373;1104;104622;-83
2021/03/12 10:23:10;;;;;;;7.30;6.15;;;;;;;7.25;76.20;99173.72;123355;1105;104297;-84
2021/03/12 10:25:39;;;;;;;23.67;18.90;;;;;;;7.16;76.19;99170.45;123127;1105;104299;-83
2021/03/12 10:28:08;;;;;;;18.97;13.67;;;;;;;7.19;76.73;99166.84;123266;1105;104428;-81
2021/03/12 10:30:57;;;;;;;12.43;7.23;;;;;;;7.16;75.70;99173.10;123392;1105;104299;-82
2021/03/12 10:33:26;;;;;;;12.90;10.53;;;;;;;7.03;75.86;99187.65;123530;1105;104300;-81
2021/03/12 10:35:58;;;;;;;10.00;7.20;;;;;;;6.98;76.27;99194.86;123448;1105;104457;-86
2021/03/12 10:38:37;;;;;;;21.13;12.63;;;;;;;6.91;76.26;99190.69;123359;1106;104385;-81
2021/03/12 10:41:06;;;;;;;14.77;10.63;;;;;;;6.88;76.31;99188.11;123283;1106;104655;-80
2021/03/12 10:43:33;;;;;;;14.67;13.10;;;;;;;6.83;76.30;99188.27;123347;1105;104296;-81
2021/03/12 10:46:05;;;;;;;22.50;16.77;;;;;;;6.86;76.63;99194.34;123373;1105;104248;-81
2021/03/12 10:48:47;;;;;;;17.20;12.97;;;;;;;6.94;76.91;99191.44;123590;1105;105514;-83
2021/03/12 10:51:16;;;;;;;26.82;23.00;;;;;;;6.98;76.80;99189.56;123367;1105;105073;-82
2021/03/12 10:53:54;;;;;;;44.70;35.70;;;;;;;6.94;75.86;99193.23;123399;1105;104594;-82
2021/03/12 10:56:23;;;;;;;17.53;14.03;;;;;;;6.99;77.22;99189.52;123184;1105;104223;-81
2021/03/12 10:58:52;;;;;;;18.80;14.60;;;;;;;7.01;77.07;99186.81;123197;1105;104347;-81
2021/03/12 11:01:25;;;;;;;45.05;36.15;;;;;;;7.08;76.96;99177.78;123509;1105;104296;-81
2021/03/12 11:03:58;;;;;;;15.60;10.33;;;;;;;7.29;76.42;99177.99;123385;1105;104352;-83
2021/03/12 11:06:31;;;;;;;27.77;22.00;;;;;;;7.55;76.56;99176.28;123211;1105;104325;-89
2021/03/12 11:08:58;;;;;;;7.70;6.30;;;;;;;7.68;75.86;99182.90;123296;1105;104233;-83
2021/03/12 11:11:26;;;;;;;8.88;6.60;;;;;;;7.89;76.40;99183.06;123289;1105;104396;-81
2021/03/12 11:13:54;;;;;;;7.87;7.07;;;;;;;8.08;75.00;99189.45;123727;1105;104788;-83
2021/03/12 11:16:20;;;;;;;7.77;6.33;;;;;;;8.19;74.63;99197.88;123594;1105;105008;-83
2021/03/12 11:18:48;;;;;;;10.80;8.18;;;;;;;8.25;73.58;99193.27;123632;1105;104673;-81
2021/03/12 11:21:15;;;;;;;8.68;7.17;;;;;;;8.19;74.29;99189.06;123708;1105;104392;-84
2021/03/12 11:23:45;;;;;;;12.30;10.07;;;;;;;8.16;74.17;99192.69;123672;1105;104232;-88
2021/03/12 11:26:13;;;;;;;10.47;7.23;;;;;;;8.26;74.45;99190.56;123377;1105;104347;-83
2021/03/12 11:28:41;;;;;;;9.25;7.25;;;;;;;8.29;72.42;99186.94;123615;1105;104399;-83
2021/03/12 11:31:09;;;;;;;13.48;9.75;;;;;;;8.37;74.27;99183.09;123432;1105;104287;-82
2021/03/12 11:33:36;;;;;;;8.17;7.33;;;;;;;8.48;73.81;99192.48;123809;1105;104259;-84